AIC741 VABB-VIDP
Flight info
| Callsign | AIC741 |
|---|---|
| Flight time | N/A |
| Altitude | 37000 |
| Route | ALBAP2B ISRIS Q1 UKASO UKAS7C |
| Aircraft | B738/M-SDE2E3FGHIRWXY/LB1 |
Departure
| Time | 2026-04-27 05:36 |
|---|---|
| Airport | Chhatrapati Shivaji Maharaj International Airport (VABB) |
Arrival
| Time | N/A |
|---|---|
| Airport | Indira Gandhi International Airport (VIDP) |
| Time | Latitude | Longitude | Altitude | Speed | Heading |
|---|---|---|---|---|---|
| 2026-04-27 05:34 | 19.09010 | 72.87806 | 47 ft | 0 kts | 178° |
| 2026-04-27 05:35 | 19.08984 | 72.87808 | 47 ft | 8 kts | 177° |
| 2026-04-27 05:35 | 19.08923 | 72.87812 | 47 ft | 9 kts | 176° |
| 2026-04-27 05:35 | 19.08886 | 72.87776 | 47 ft | 1 kts | 263° |
| 2026-04-27 05:36 | 19.08885 | 72.87760 | 47 ft | 18 kts | 265° |
| 2026-04-27 05:36 | 19.08877 | 72.87253 | 50 ft | 117 kts | 269° |
| 2026-04-27 05:36 | 19.08864 | 72.86092 | 94 ft | 194 kts | 269° |
| 2026-04-27 05:36 | 19.08881 | 72.84632 | 1145 ft | 189 kts | 269° |
| 2026-04-27 05:37 | 19.08884 | 72.83351 | 2788 ft | 165 kts | 266° |
| 2026-04-27 05:37 | 19.08782 | 72.82093 | 3642 ft | 191 kts | 272° |
| 2026-04-27 05:37 | 19.08743 | 72.80524 | 3966 ft | 230 kts | 272° |
| 2026-04-27 05:37 | 19.08695 | 72.78768 | 4639 ft | 246 kts | 274° |
| 2026-04-27 05:38 | 19.08690 | 72.76870 | 5228 ft | 270 kts | 273° |
| 2026-04-27 05:38 | 19.08689 | 72.74845 | 6249 ft | 278 kts | 276° |
| 2026-04-27 05:38 | 19.09213 | 72.72897 | 7304 ft | 278 kts | 302° |
| 2026-04-27 05:38 | 19.10508 | 72.71388 | 8351 ft | 281 kts | 327° |
| 2026-04-27 05:39 | 19.12333 | 72.70611 | 9269 ft | 292 kts | 351° |
| 2026-04-27 05:39 | 19.14430 | 72.70781 | 9717 ft | 319 kts | 20° |
| 2026-04-27 05:39 | 19.16426 | 72.72039 | 9870 ft | 354 kts | 37° |
| 2026-04-27 05:39 | 19.18571 | 72.73574 | 9878 ft | 390 kts | 30° |
| 2026-04-27 05:40 | 19.21142 | 72.74784 | 9865 ft | 421 kts | 16° |
| 2026-04-27 05:40 | 19.24134 | 72.75191 | 9856 ft | 448 kts | 356° |
| 2026-04-27 05:40 | 19.27231 | 72.74570 | 9872 ft | 457 kts | 346° |
| 2026-04-27 05:40 | 19.30360 | 72.73926 | 9862 ft | 459 kts | 354° |
| 2026-04-27 05:41 | 19.33530 | 72.74040 | 10252 ft | 456 kts | 7° |
| 2026-04-27 05:41 | 19.36650 | 72.74585 | 11066 ft | 453 kts | 10° |
| 2026-04-27 05:41 | 19.39726 | 72.75181 | 12206 ft | 443 kts | 10° |
| 2026-04-27 05:41 | 19.42702 | 72.75742 | 13711 ft | 425 kts | 9° |
| 2026-04-27 05:42 | 19.45548 | 72.76246 | 15207 ft | 405 kts | 9° |
| 2026-04-27 05:42 | 19.48269 | 72.76701 | 16629 ft | 388 kts | 8° |
| 2026-04-27 05:42 | 19.50887 | 72.77120 | 17975 ft | 373 kts | 7° |
| 2026-04-27 05:42 | 19.53409 | 72.77514 | 19085 ft | 360 kts | 7° |
| 2026-04-27 05:43 | 19.55855 | 72.77892 | 20103 ft | 349 kts | 6° |
| 2026-04-27 05:43 | 19.58222 | 72.78256 | 21084 ft | 339 kts | 6° |
| 2026-04-27 05:43 | 19.60518 | 72.78610 | 22043 ft | 328 kts | 5° |
| 2026-04-27 05:43 | 19.62742 | 72.78953 | 22989 ft | 317 kts | 5° |
| 2026-04-27 05:44 | 19.64883 | 72.79284 | 23838 ft | 305 kts | 4° |
| 2026-04-27 05:44 | 19.66940 | 72.79603 | 24549 ft | 293 kts | 3° |
| 2026-04-27 05:44 | 19.68932 | 72.79910 | 25098 ft | 288 kts | 2° |
| 2026-04-27 05:44 | 19.70960 | 72.80217 | 25192 ft | 302 kts | 2° |
| 2026-04-27 05:45 | 19.73083 | 72.80536 | 25348 ft | 313 kts | 2° |
| 2026-04-27 05:45 | 19.75251 | 72.80867 | 25678 ft | 316 kts | 2° |
| 2026-04-27 05:45 | 19.77427 | 72.81204 | 26100 ft | 316 kts | 2° |
| 2026-04-27 05:45 | 19.81482 | 72.81835 | 27015 ft | 309 kts | 1° |
| 2026-04-27 05:46 | 19.83953 | 72.82220 | 27567 ft | 304 kts | 0° |
| 2026-04-27 05:46 | 19.86045 | 72.82543 | 27932 ft | 304 kts | 360° |
| 2026-04-27 05:46 | 19.88123 | 72.82862 | 28143 ft | 308 kts | 359° |
| 2026-04-27 05:46 | 19.90270 | 72.83189 | 28261 ft | 315 kts | 359° |
| 2026-04-27 05:47 | 19.92492 | 72.83526 | 28208 ft | 332 kts | 0° |
| 2026-04-27 05:47 | 19.94884 | 72.83889 | 28149 ft | 351 kts | 1° |
| 2026-04-27 05:47 | 19.97311 | 72.84263 | 28265 ft | 365 kts | 1° |
| 2026-04-27 05:47 | 19.99870 | 72.84661 | 28366 ft | 379 kts | 1° |
| 2026-04-27 05:48 | 20.02529 | 72.85077 | 28465 ft | 393 kts | 1° |
| 2026-04-27 05:48 | 20.05278 | 72.85504 | 28551 ft | 406 kts | 1° |
| 2026-04-27 05:48 | 20.08120 | 72.85944 | 28636 ft | 419 kts | 2° |
| 2026-04-27 05:48 | 20.11048 | 72.86370 | 28720 ft | 430 kts | 1° |
| 2026-04-27 05:49 | 20.14061 | 72.86755 | 28800 ft | 441 kts | 0° |
| 2026-04-27 05:49 | 20.17149 | 72.87132 | 28861 ft | 452 kts | 0° |
| 2026-04-27 05:49 | 20.20314 | 72.87516 | 28937 ft | 462 kts | 0° |
| 2026-04-27 05:49 | 20.25436 | 72.88150 | 29042 ft | 476 kts | 1° |
| 2026-04-27 05:50 | 20.32078 | 72.88995 | 29516 ft | 484 kts | 1° |
| 2026-04-27 05:50 | 20.38799 | 72.89860 | 30074 ft | 488 kts | 0° |
| 2026-04-27 05:50 | 20.45569 | 72.90728 | 30573 ft | 492 kts | 0° |
| 2026-04-27 05:50 | 20.52380 | 72.91599 | 31112 ft | 493 kts | 0° |
| 2026-04-27 05:51 | 20.59186 | 72.92472 | 31819 ft | 491 kts | 360° |
| 2026-04-27 05:51 | 20.65981 | 72.93341 | 32418 ft | 492 kts | 360° |
| 2026-04-27 05:51 | 20.72782 | 72.94213 | 33083 ft | 491 kts | 359° |
| 2026-04-27 05:51 | 20.77080 | 72.94728 | 33453 ft | 490 kts | 356° |
| 2026-04-27 05:52 | 20.80474 | 72.94941 | 33725 ft | 488 kts | 354° |
| 2026-04-27 05:52 | 20.86667 | 72.95101 | 34231 ft | 486 kts | 353° |
| 2026-04-27 05:52 | 20.93404 | 72.95269 | 34831 ft | 485 kts | 354° |
| 2026-04-27 05:52 | 20.99896 | 72.95497 | 35379 ft | 484 kts | 355° |
| 2026-04-27 05:53 | 21.03258 | 72.95626 | 35707 ft | 482 kts | 355° |
| 2026-04-27 05:53 | 21.06603 | 72.95756 | 36025 ft | 480 kts | 355° |
| 2026-04-27 05:53 | 21.09940 | 72.95883 | 36312 ft | 479 kts | 356° |
| 2026-04-27 05:53 | 21.13271 | 72.96008 | 36573 ft | 479 kts | 356° |
| 2026-04-27 05:54 | 21.16600 | 72.96172 | 36835 ft | 481 kts | 0° |
| 2026-04-27 05:54 | 21.23215 | 72.97849 | 36839 ft | 495 kts | 15° |
| 2026-04-27 05:55 | 21.35732 | 73.02839 | 36812 ft | 493 kts | 16° |
| 2026-04-27 05:55 | 21.48477 | 73.07805 | 36803 ft | 481 kts | 15° |
| 2026-04-27 05:56 | 21.60951 | 73.12618 | 36825 ft | 479 kts | 15° |
| 2026-04-27 05:56 | 21.73607 | 73.17516 | 36827 ft | 488 kts | 16° |
| 2026-04-27 05:57 | 21.86466 | 73.22509 | 36805 ft | 492 kts | 16° |
| 2026-04-27 05:57 | 21.99217 | 73.27473 | 36787 ft | 480 kts | 16° |
| 2026-04-27 05:58 | 22.11636 | 73.32312 | 36794 ft | 471 kts | 16° |
| 2026-04-27 05:58 | 22.24026 | 73.37144 | 36815 ft | 478 kts | 16° |
| 2026-04-27 05:59 | 22.36686 | 73.42095 | 36814 ft | 488 kts | 16° |
| 2026-04-27 05:59 | 22.49424 | 73.47091 | 36781 ft | 483 kts | 16° |
| 2026-04-27 06:00 | 22.67990 | 73.54385 | 36816 ft | 468 kts | 16° |
| 2026-04-27 06:00 | 22.79189 | 73.58793 | 36825 ft | 476 kts | 17° |
| 2026-04-27 06:01 | 22.91406 | 73.63615 | 36826 ft | 484 kts | 17° |
| 2026-04-27 06:01 | 23.04023 | 73.68612 | 36805 ft | 478 kts | 17° |
| 2026-04-27 06:02 | 23.14253 | 73.72670 | 36817 ft | 466 kts | 17° |
| 2026-04-27 06:02 | 23.26414 | 73.77497 | 36843 ft | 466 kts | 17° |
| 2026-04-27 06:03 | 23.38746 | 73.82402 | 36831 ft | 478 kts | 17° |
| 2026-04-27 06:03 | 23.51291 | 73.87407 | 36820 ft | 480 kts | 17° |
| 2026-04-27 06:04 | 23.63691 | 73.92365 | 36807 ft | 468 kts | 17° |
| 2026-04-27 06:04 | 23.75836 | 73.97226 | 36817 ft | 463 kts | 17° |
| 2026-04-27 06:05 | 23.88016 | 74.02111 | 36835 ft | 472 kts | 17° |
| 2026-04-27 06:05 | 24.00473 | 74.07121 | 36833 ft | 480 kts | 17° |
| 2026-04-27 06:06 | 24.11401 | 74.11475 | 36813 ft | 467 kts | 17° |
| 2026-04-27 06:06 | 24.22042 | 74.15695 | 36831 ft | 461 kts | 17° |
| 2026-04-27 06:07 | 24.34235 | 74.20614 | 36856 ft | 473 kts | 17° |
| 2026-04-27 06:07 | 24.43413 | 74.24336 | 36838 ft | 475 kts | 17° |
| 2026-04-27 06:08 | 24.49546 | 74.26826 | 36823 ft | 466 kts | 17° |
| 2026-04-27 06:08 | 24.55632 | 74.29296 | 36837 ft | 467 kts | 17° |
| 2026-04-27 06:09 | 24.61729 | 74.31771 | 36836 ft | 468 kts | 17° |
| 2026-04-27 06:09 | 24.67838 | 74.34255 | 36828 ft | 469 kts | 17° |
| 2026-04-27 06:10 | 24.73963 | 74.36749 | 36823 ft | 469 kts | 18° |
| 2026-04-27 06:10 | 24.80090 | 74.39246 | 36819 ft | 470 kts | 18° |
| 2026-04-27 06:11 | 24.82109 | 74.40070 | 36820 ft | 470 kts | 18° |